Time;durP1;ratioP1;P1;durP2;ratioP2;P2;SDS_P1;SDS_P2;PMS_P1;PMS_P2;Temp;Humidity;BMP_temperature;BMP_pressure;BME280_temperature;BME280_humidity;BME280_pressure;Samples;Min_cycle;Max_cycle;Signal;HPM_P1;HPM_P2
2023/10/31 00:00:43;;;;;;;432.80;173.67;;;;;;;;;;5007107;28;20310;-68
2023/10/31 00:03:10;;;;;;;433.33;175.03;;;;;;;;;;5020811;28;20515;-68
2023/10/31 00:05:36;;;;;;;474.40;194.47;;;;;;;;;;5016190;28;20191;-68
2023/10/31 00:08:02;;;;;;;471.27;193.27;;;;;;;;;;5013640;28;20216;-68
2023/10/31 00:10:28;;;;;;;459.63;186.10;;;;;;;;;;5013458;28;20216;-68
2023/10/31 00:12:54;;;;;;;435.63;173.73;;;;;;;;;;5015112;28;20212;-68
2023/10/31 00:15:20;;;;;;;482.50;204.83;;;;;;;;;;5013088;28;20262;-68
2023/10/31 00:17:45;;;;;;;425.80;168.93;;;;;;;;;;5021406;28;20196;-69
2023/10/31 00:20:12;;;;;;;483.70;203.17;;;;;;;;;;5014623;28;20219;-69
2023/10/31 00:22:37;;;;;;;431.03;172.83;;;;;;;;;;5013590;28;20239;-68
2023/10/31 00:25:04;;;;;;;462.13;185.27;;;;;;;;;;5015393;28;21821;-69
2023/10/31 00:27:30;;;;;;;513.53;215.87;;;;;;;;;;5013323;28;20231;-67
2023/10/31 00:29:56;;;;;;;437.03;177.50;;;;;;;;;;5015894;28;20184;-69
2023/10/31 00:32:22;;;;;;;454.57;186.47;;;;;;;;;;5013508;28;20212;-67
2023/10/31 00:34:48;;;;;;;479.07;199.00;;;;;;;;;;5019014;28;20219;-67
2023/10/31 00:37:14;;;;;;;465.77;195.17;;;;;;;;;;5019202;28;20227;-68
2023/10/31 00:39:40;;;;;;;436.67;178.40;;;;;;;;;;5013732;28;20686;-68
2023/10/31 00:42:06;;;;;;;453.60;185.83;;;;;;;;;;5019594;28;20192;-67
2023/10/31 00:44:32;;;;;;;483.53;202.93;;;;;;;;;;5012268;28;20181;-67
2023/10/31 00:46:58;;;;;;;457.53;181.33;;;;;;;;;;5018840;28;20208;-68
2023/10/31 00:49:24;;;;;;;496.20;201.43;;;;;;;;;;5007223;28;20226;-68
2023/10/31 00:51:50;;;;;;;452.90;181.17;;;;;;;;;;5016517;28;20220;-68
2023/10/31 00:54:16;;;;;;;454.63;188.73;;;;;;;;;;5014492;28;20893;-68
2023/10/31 00:56:42;;;;;;;421.07;169.27;;;;;;;;;;5018717;28;20793;-67
2023/10/31 00:59:08;;;;;;;454.67;188.03;;;;;;;;;;5017588;28;20218;-67
2023/10/31 01:01:34;;;;;;;467.43;186.53;;;;;;;;;;5016728;28;20208;-67
2023/10/31 01:04:00;;;;;;;451.67;179.77;;;;;;;;;;5019175;28;20321;-67
2023/10/31 01:06:25;;;;;;;480.37;197.87;;;;;;;;;;5008941;28;20257;-67
2023/10/31 01:08:51;;;;;;;475.17;195.07;;;;;;;;;;5014307;28;20524;-67
2023/10/31 01:11:17;;;;;;;472.37;198.03;;;;;;;;;;5014955;28;20211;-67
2023/10/31 01:13:44;;;;;;;443.30;177.40;;;;;;;;;;5013492;28;20307;-67
2023/10/31 01:16:10;;;;;;;440.23;175.80;;;;;;;;;;5014261;28;20231;-68
2023/10/31 01:18:36;;;;;;;438.73;178.37;;;;;;;;;;5012786;28;20248;-68
2023/10/31 01:21:02;;;;;;;444.60;179.77;;;;;;;;;;5018705;28;20191;-67
2023/10/31 01:23:27;;;;;;;483.60;200.70;;;;;;;;;;5006310;28;20220;-67
2023/10/31 01:25:53;;;;;;;473.40;194.03;;;;;;;;;;5015304;28;20204;-68
2023/10/31 01:28:19;;;;;;;501.50;208.40;;;;;;;;;;5008685;28;20555;-67
2023/10/31 01:30:45;;;;;;;470.57;189.73;;;;;;;;;;5014785;28;20551;-68
2023/10/31 01:33:11;;;;;;;431.90;171.97;;;;;;;;;;5014283;28;20602;-67
2023/10/31 01:35:37;;;;;;;464.70;189.30;;;;;;;;;;5017588;28;20669;-67
2023/10/31 01:38:03;;;;;;;467.60;194.23;;;;;;;;;;5004482;28;20703;-68
2023/10/31 01:40:29;;;;;;;510.87;215.60;;;;;;;;;;5013647;28;20204;-69
2023/10/31 01:42:56;;;;;;;449.00;181.03;;;;;;;;;;5016124;28;20451;-68
2023/10/31 01:45:22;;;;;;;496.43;208.53;;;;;;;;;;5010258;28;20248;-68
2023/10/31 01:47:49;;;;;;;469.33;196.90;;;;;;;;;;5015695;28;20249;-68
2023/10/31 01:50:15;;;;;;;510.40;216.90;;;;;;;;;;5014164;28;20228;-68
2023/10/31 01:52:41;;;;;;;443.50;179.47;;;;;;;;;;5019341;28;20315;-68
2023/10/31 01:55:08;;;;;;;464.93;195.17;;;;;;;;;;5015853;28;20218;-68
2023/10/31 01:57:34;;;;;;;489.93;205.80;;;;;;;;;;5009385;28;20631;-68
2023/10/31 02:00:00;;;;;;;433.00;176.03;;;;;;;;;;5014527;28;20191;-68
2023/10/31 02:02:26;;;;;;;458.50;189.70;;;;;;;;;;5009283;28;20771;-68
2023/10/31 02:04:52;;;;;;;441.67;181.87;;;;;;;;;;5015783;28;20758;-68
2023/10/31 02:07:18;;;;;;;478.00;203.33;;;;;;;;;;5004865;28;20212;-67
2023/10/31 02:09:44;;;;;;;448.67;187.07;;;;;;;;;;5041012;28;20211;-67
2023/10/31 02:12:10;;;;;;;451.97;185.27;;;;;;;;;;5013307;28;20183;-68
2023/10/31 02:14:35;;;;;;;455.93;192.97;;;;;;;;;;5014490;28;20661;-67
2023/10/31 02:17:01;;;;;;;443.83;183.73;;;;;;;;;;5014975;28;20366;-67
2023/10/31 02:19:27;;;;;;;470.67;201.27;;;;;;;;;;5018098;28;20295;-68
2023/10/31 02:21:53;;;;;;;457.57;183.53;;;;;;;;;;5012123;28;20294;-68
2023/10/31 02:24:19;;;;;;;491.37;205.67;;;;;;;;;;5011420;28;20192;-67
2023/10/31 02:26:45;;;;;;;483.70;193.83;;;;;;;;;;5015722;28;20329;-68
2023/10/31 02:29:11;;;;;;;443.37;178.60;;;;;;;;;;5017536;28;20346;-68
2023/10/31 02:31:37;;;;;;;487.63;203.50;;;;;;;;;;5012656;28;20229;-67
2023/10/31 02:34:03;;;;;;;436.97;178.67;;;;;;;;;;5014185;28;20216;-68
2023/10/31 02:36:29;;;;;;;603.90;272.07;;;;;;;;;;5035840;28;20279;-67
2023/10/31 02:38:55;;;;;;;455.50;185.97;;;;;;;;;;5017183;28;20203;-67
2023/10/31 02:41:21;;;;;;;492.90;206.80;;;;;;;;;;5013041;28;20508;-67
2023/10/31 02:43:48;;;;;;;468.30;190.07;;;;;;;;;;5010495;28;20234;-67
2023/10/31 02:46:15;;;;;;;433.23;173.43;;;;;;;;;;5016631;28;20238;-67
2023/10/31 02:48:41;;;;;;;442.53;177.03;;;;;;;;;;5017395;28;20211;-67
2023/10/31 02:51:08;;;;;;;447.37;179.83;;;;;;;;;;5014217;28;20181;-67
2023/10/31 02:53:34;;;;;;;489.03;198.00;;;;;;;;;;5018622;28;20191;-67
2023/10/31 02:56:00;;;;;;;484.43;196.30;;;;;;;;;;5015104;28;20222;-67
2023/10/31 02:58:26;;;;;;;478.00;191.27;;;;;;;;;;5015738;28;20325;-67
2023/10/31 03:00:52;;;;;;;433.67;174.23;;;;;;;;;;5016195;28;20218;-67
2023/10/31 03:03:18;;;;;;;439.03;176.80;;;;;;;;;;5020377;28;20180;-67
2023/10/31 03:05:44;;;;;;;455.43;183.47;;;;;;;;;;5006969;28;20561;-67
2023/10/31 03:08:11;;;;;;;465.07;191.23;;;;;;;;;;5014539;28;20930;-67
2023/10/31 03:10:39;;;;;;;458.63;184.67;;;;;;;;;;5008126;28;20208;-67
2023/10/31 03:13:04;;;;;;;473.33;191.83;;;;;;;;;;5016985;28;20208;-67
2023/10/31 03:15:31;;;;;;;465.83;187.23;;;;;;;;;;5012130;28;20232;-68
2023/10/31 03:17:56;;;;;;;476.50;191.13;;;;;;;;;;5017631;28;20565;-67
2023/10/31 03:20:22;;;;;;;476.20;194.10;;;;;;;;;;5017448;28;20243;-67
2023/10/31 03:22:48;;;;;;;463.40;189.40;;;;;;;;;;5019203;28;20204;-68
2023/10/31 03:25:14;;;;;;;426.03;172.40;;;;;;;;;;5020438;28;20205;-68
2023/10/31 03:27:40;;;;;;;482.10;201.20;;;;;;;;;;5015209;28;20698;-68
2023/10/31 03:30:06;;;;;;;443.17;178.43;;;;;;;;;;5013921;28;20312;-67
2023/10/31 03:32:32;;;;;;;487.93;202.83;;;;;;;;;;5014147;28;20188;-68
2023/10/31 03:34:58;;;;;;;455.23;183.00;;;;;;;;;;5018907;28;20662;-67
2023/10/31 03:37:24;;;;;;;483.07;198.20;;;;;;;;;;5019338;28;20216;-67
2023/10/31 03:39:50;;;;;;;438.90;174.43;;;;;;;;;;5011908;28;20208;-67
2023/10/31 03:42:16;;;;;;;443.03;178.90;;;;;;;;;;5007965;28;20196;-68
2023/10/31 03:44:42;;;;;;;446.63;176.87;;;;;;;;;;5015957;28;20188;-68
2023/10/31 03:47:08;;;;;;;422.87;167.27;;;;;;;;;;5016152;28;20224;-68
2023/10/31 03:49:34;;;;;;;466.27;185.23;;;;;;;;;;5013517;28;20216;-68
2023/10/31 03:52:00;;;;;;;495.13;208.53;;;;;;;;;;5017996;28;20236;-68
2023/10/31 03:54:26;;;;;;;465.87;190.33;;;;;;;;;;5015869;28;20583;-68
2023/10/31 03:56:51;;;;;;;439.63;179.90;;;;;;;;;;5016953;28;20527;-68
2023/10/31 03:59:17;;;;;;;449.83;178.37;;;;;;;;;;5016068;28;20218;-68
2023/10/31 04:01:43;;;;;;;450.70;181.90;;;;;;;;;;5018782;28;20208;-68
2023/10/31 04:04:09;;;;;;;460.33;183.70;;;;;;;;;;5017776;28;20235;-68
2023/10/31 04:06:39;;;;;;;472.70;194.97;;;;;;;;;;5008116;28;20666;-68
2023/10/31 04:09:05;;;;;;;464.63;189.67;;;;;;;;;;5008555;28;20189;-68
2023/10/31 04:11:31;;;;;;;487.60;198.80;;;;;;;;;;5013792;28;20184;-68
2023/10/31 04:13:57;;;;;;;445.50;177.87;;;;;;;;;;5016472;28;20216;-68
2023/10/31 04:16:23;;;;;;;462.80;188.87;;;;;;;;;;5015893;28;20322;-68
2023/10/31 04:18:49;;;;;;;485.83;203.73;;;;;;;;;;5041794;28;20582;-68
2023/10/31 04:21:15;;;;;;;457.33;189.07;;;;;;;;;;5008161;28;20674;-68
2023/10/31 04:23:41;;;;;;;441.53;179.93;;;;;;;;;;5018715;28;20181;-68
2023/10/31 04:26:07;;;;;;;439.80;175.73;;;;;;;;;;5011163;28;20595;-68
2023/10/31 04:28:33;;;;;;;499.17;211.30;;;;;;;;;;5011878;28;20244;-68
2023/10/31 04:30:59;;;;;;;448.00;181.83;;;;;;;;;;5015919;28;20462;-68
2023/10/31 04:33:24;;;;;;;469.73;190.47;;;;;;;;;;5019871;28;22399;-68
2023/10/31 04:35:50;;;;;;;472.27;198.17;;;;;;;;;;5014524;28;20215;-68
2023/10/31 04:38:16;;;;;;;455.53;181.50;;;;;;;;;;5006023;28;20311;-68
2023/10/31 04:40:42;;;;;;;479.67;193.47;;;;;;;;;;5013678;28;20231;-68
2023/10/31 04:43:08;;;;;;;438.03;176.90;;;;;;;;;;5017879;28;20208;-68
2023/10/31 04:45:34;;;;;;;469.43;187.87;;;;;;;;;;5015840;28;20309;-68
2023/10/31 04:48:00;;;;;;;470.47;186.47;;;;;;;;;;5013348;28;20558;-68
2023/10/31 04:50:26;;;;;;;461.00;184.10;;;;;;;;;;5014843;28;20770;-68
2023/10/31 04:52:52;;;;;;;443.13;176.97;;;;;;;;;;5016938;28;20208;-67
2023/10/31 04:55:18;;;;;;;469.23;188.53;;;;;;;;;;5019493;28;20719;-68
2023/10/31 04:57:44;;;;;;;452.03;182.93;;;;;;;;;;5014571;28;20216;-68
2023/10/31 05:00:10;;;;;;;470.63;194.50;;;;;;;;;;5014536;28;20180;-68
2023/10/31 05:02:36;;;;;;;446.27;180.87;;;;;;;;;;5018332;28;20180;-68
2023/10/31 05:05:02;;;;;;;485.37;196.87;;;;;;;;;;5007192;28;20219;-68
2023/10/31 05:07:28;;;;;;;473.53;195.40;;;;;;;;;;5006038;28;20630;-68
2023/10/31 05:09:54;;;;;;;455.87;185.33;;;;;;;;;;5017932;28;20219;-68
2023/10/31 05:12:20;;;;;;;478.83;194.93;;;;;;;;;;5006670;28;20263;-67
2023/10/31 05:14:46;;;;;;;457.47;184.10;;;;;;;;;;5014017;28;20188;-68
2023/10/31 05:17:12;;;;;;;426.33;170.60;;;;;;;;;;5016572;28;20349;-68
2023/10/31 05:19:38;;;;;;;473.77;195.53;;;;;;;;;;5011914;28;20220;-68
2023/10/31 05:22:04;;;;;;;469.23;192.63;;;;;;;;;;5014413;28;20208;-68
2023/10/31 05:24:32;;;;;;;480.23;199.23;;;;;;;;;;5017969;28;20694;-68
2023/10/31 05:26:58;;;;;;;454.33;184.10;;;;;;;;;;5021847;28;20231;-68
2023/10/31 05:29:23;;;;;;;470.07;194.83;;;;;;;;;;5011829;28;20294;-68
2023/10/31 05:31:49;;;;;;;480.70;199.87;;;;;;;;;;5015991;28;20277;-68
2023/10/31 05:34:15;;;;;;;440.77;181.57;;;;;;;;;;5019225;28;20771;-68
2023/10/31 05:36:41;;;;;;;461.90;190.37;;;;;;;;;;5018438;28;20222;-68
2023/10/31 05:39:08;;;;;;;469.47;193.07;;;;;;;;;;5013241;28;20192;-68
2023/10/31 05:41:35;;;;;;;472.20;197.93;;;;;;;;;;5020843;28;20303;-68
2023/10/31 05:44:01;;;;;;;480.10;197.70;;;;;;;;;;5014238;28;20624;-68
2023/10/31 05:46:27;;;;;;;522.73;222.27;;;;;;;;;;5015209;28;20242;-68
2023/10/31 05:48:53;;;;;;;441.17;177.23;;;;;;;;;;5020073;28;20220;-68
2023/10/31 05:51:19;;;;;;;453.37;181.97;;;;;;;;;;5016727;28;20708;-68
2023/10/31 05:53:47;;;;;;;429.10;171.70;;;;;;;;;;5016775;28;20655;-68
2023/10/31 05:56:13;;;;;;;426.17;168.33;;;;;;;;;;5016846;28;20311;-69
2023/10/31 05:58:39;;;;;;;457.53;186.40;;;;;;;;;;5007118;28;20251;-68
2023/10/31 06:01:05;;;;;;;462.47;183.73;;;;;;;;;;5017215;28;20216;-68
2023/10/31 06:03:32;;;;;;;461.33;183.37;;;;;;;;;;5020646;28;20208;-68
2023/10/31 06:05:58;;;;;;;476.57;194.83;;;;;;;;;;5013285;28;20307;-68
2023/10/31 06:08:24;;;;;;;454.60;180.97;;;;;;;;;;5018507;28;20314;-68
2023/10/31 06:10:50;;;;;;;477.57;193.77;;;;;;;;;;5013432;28;20280;-68
2023/10/31 06:13:16;;;;;;;431.60;174.53;;;;;;;;;;5005108;28;20220;-68
2023/10/31 06:15:50;;;;;;;466.90;193.17;;;;;;;;;;5014325;28;20227;-70
2023/10/31 06:18:15;;;;;;;446.47;174.10;;;;;;;;;;5014745;28;20291;-70
2023/10/31 06:20:41;;;;;;;460.07;189.63;;;;;;;;;;5018626;28;20314;-69
2023/10/31 06:23:07;;;;;;;453.67;180.97;;;;;;;;;;5011565;28;20213;-70
2023/10/31 06:25:33;;;;;;;487.30;203.80;;;;;;;;;;4989129;28;20293;-69
2023/10/31 06:28:00;;;;;;;455.37;180.30;;;;;;;;;;5012302;28;22075;-69
2023/10/31 06:30:26;;;;;;;489.53;202.07;;;;;;;;;;5012815;28;20216;-70
2023/10/31 06:32:52;;;;;;;438.93;175.00;;;;;;;;;;5010182;28;20231;-69
2023/10/31 06:35:18;;;;;;;460.73;187.07;;;;;;;;;;5004752;28;20270;-69
2023/10/31 06:37:44;;;;;;;514.30;211.57;;;;;;;;;;5023968;28;20228;-82
2023/10/31 06:40:10;;;;;;;559.67;244.07;;;;;;;;;;5003683;28;20234;-84
2023/10/31 06:42:38;;;;;;;507.07;209.77;;;;;;;;;;5014607;28;20288;-84
2023/10/31 06:45:04;;;;;;;447.90;174.90;;;;;;;;;;5014142;28;20192;-78
2023/10/31 06:47:31;;;;;;;479.53;189.53;;;;;;;;;;5020817;28;20207;-81
2023/10/31 06:49:57;;;;;;;458.47;188.87;;;;;;;;;;5022475;28;20208;-85
2023/10/31 06:52:23;;;;;;;449.40;190.93;;;;;;;;;;5012606;28;20327;-83
2023/10/31 06:54:49;;;;;;;506.37;216.13;;;;;;;;;;5027546;28;20208;-86
2023/10/31 06:57:16;;;;;;;470.27;189.77;;;;;;;;;;5002682;28;20212;-72
2023/10/31 06:59:42;;;;;;;467.03;189.00;;;;;;;;;;5028251;28;20258;-71
2023/10/31 07:02:08;;;;;;;444.23;175.30;;;;;;;;;;5023148;28;20224;-68
2023/10/31 07:04:34;;;;;;;458.20;183.50;;;;;;;;;;5016302;28;20219;-74
2023/10/31 07:07:00;;;;;;;433.87;167.70;;;;;;;;;;5014928;28;20235;-73
2023/10/31 07:09:27;;;;;;;431.83;168.60;;;;;;;;;;5032685;28;20208;-73
2023/10/31 07:11:53;;;;;;;427.00;171.93;;;;;;;;;;5030252;28;20676;-74
2023/10/31 07:14:19;;;;;;;448.30;177.70;;;;;;;;;;5036796;28;20219;-71
2023/10/31 07:16:45;;;;;;;463.10;185.70;;;;;;;;;;5030266;28;20326;-72
2023/10/31 07:19:11;;;;;;;453.87;178.47;;;;;;;;;;5026252;28;20295;-73
2023/10/31 07:21:37;;;;;;;457.77;182.63;;;;;;;;;;5032589;28;20228;-84
2023/10/31 07:24:03;;;;;;;549.10;230.47;;;;;;;;;;5012020;28;20202;-91
2023/10/31 07:26:29;;;;;;;477.50;195.87;;;;;;;;;;5023015;28;20215;-82
2023/10/31 07:28:55;;;;;;;442.43;174.80;;;;;;;;;;5042952;28;20311;-86
2023/10/31 07:31:22;;;;;;;449.40;180.87;;;;;;;;;;5033181;28;20226;-84
2023/10/31 07:33:48;;;;;;;460.33;181.10;;;;;;;;;;5033802;28;20220;-83
2023/10/31 07:36:14;;;;;;;449.50;180.43;;;;;;;;;;5026679;28;20287;-71
2023/10/31 07:38:40;;;;;;;472.43;193.00;;;;;;;;;;5009496;28;20207;-70
2023/10/31 07:41:06;;;;;;;513.40;214.37;;;;;;;;;;5014742;28;20220;-71
2023/10/31 07:43:31;;;;;;;476.93;189.47;;;;;;;;;;5015602;28;20573;-81
2023/10/31 07:45:57;;;;;;;447.07;179.67;;;;;;;;;;5031747;28;20203;-84
2023/10/31 07:48:23;;;;;;;433.60;168.60;;;;;;;;;;5032943;28;20232;-86
2023/10/31 07:50:49;;;;;;;491.20;200.00;;;;;;;;;;5013944;28;20180;-78
2023/10/31 07:53:15;;;;;;;442.47;176.20;;;;;;;;;;5012633;28;20551;-81
2023/10/31 07:55:41;;;;;;;553.53;239.83;;;;;;;;;;5005282;28;20220;-77
2023/10/31 07:58:09;;;;;;;435.60;172.80;;;;;;;;;;5005592;28;20216;-78
2023/10/31 08:00:35;;;;;;;507.00;208.93;;;;;;;;;;5015287;28;20216;-81
2023/10/31 08:03:01;;;;;;;477.00;189.30;;;;;;;;;;5009601;28;20180;-78
2023/10/31 08:05:27;;;;;;;452.00;181.13;;;;;;;;;;5014401;28;20223;-78
2023/10/31 08:07:53;;;;;;;456.57;180.67;;;;;;;;;;5019300;28;20216;-78
2023/10/31 08:10:19;;;;;;;439.97;175.87;;;;;;;;;;5011761;28;20723;-80
2023/10/31 08:12:45;;;;;;;565.60;246.80;;;;;;;;;;5001032;28;20609;-79
2023/10/31 08:15:11;;;;;;;528.43;221.17;;;;;;;;;;4997490;28;20179;-79
2023/10/31 08:17:37;;;;;;;457.10;180.57;;;;;;;;;;5003675;28;20729;-78
2023/10/31 08:20:04;;;;;;;495.00;202.70;;;;;;;;;;4989712;28;20209;-78
2023/10/31 08:22:29;;;;;;;477.57;198.30;;;;;;;;;;5012681;28;20269;-78
2023/10/31 08:24:55;;;;;;;535.80;234.13;;;;;;;;;;5017330;28;20516;-79
2023/10/31 08:27:21;;;;;;;493.17;205.57;;;;;;;;;;5021718;28;20227;-83
2023/10/31 08:29:47;;;;;;;482.47;193.87;;;;;;;;;;5014030;28;20239;-79
2023/10/31 08:32:13;;;;;;;465.53;188.00;;;;;;;;;;5023514;28;20255;-78
2023/10/31 08:34:39;;;;;;;478.73;195.10;;;;;;;;;;5025885;28;20245;-80
2023/10/31 08:37:05;;;;;;;449.50;178.43;;;;;;;;;;5024923;28;20484;-81
2023/10/31 08:39:31;;;;;;;456.37;183.20;;;;;;;;;;5032659;28;20217;-81
2023/10/31 08:41:59;;;;;;;435.50;171.87;;;;;;;;;;5022858;28;20748;-79
2023/10/31 08:44:25;;;;;;;429.53;170.70;;;;;;;;;;5033815;28;20760;-78
2023/10/31 08:46:51;;;;;;;481.63;194.90;;;;;;;;;;5023891;28;20215;-80
2023/10/31 08:49:17;;;;;;;469.93;191.50;;;;;;;;;;5019193;28;20280;-82
2023/10/31 08:51:43;;;;;;;467.60;188.83;;;;;;;;;;5020714;28;20871;-81
2023/10/31 08:54:09;;;;;;;446.57;178.90;;;;;;;;;;5023258;28;20194;-82
2023/10/31 08:56:35;;;;;;;456.27;183.50;;;;;;;;;;5020630;28;20212;-81
2023/10/31 08:59:01;;;;;;;470.43;188.43;;;;;;;;;;5023813;28;20262;-80
2023/10/31 09:01:31;;;;;;;465.47;184.53;;;;;;;;;;5013332;28;20394;-79
2023/10/31 09:04:00;;;;;;;453.33;175.87;;;;;;;;;;5019602;28;20702;-80
2023/10/31 09:06:26;;;;;;;473.17;193.70;;;;;;;;;;5012912;28;20220;-80
2023/10/31 09:08:52;;;;;;;480.80;189.43;;;;;;;;;;5012600;28;20230;-79
2023/10/31 09:11:18;;;;;;;424.17;160.57;;;;;;;;;;5006588;28;20258;-81
2023/10/31 09:13:44;;;;;;;456.53;179.30;;;;;;;;;;5019470;28;20246;-79
2023/10/31 09:16:10;;;;;;;479.93;187.73;;;;;;;;;;5009498;28;20224;-79
2023/10/31 09:18:36;;;;;;;478.27;183.63;;;;;;;;;;5012175;28;20246;-79
2023/10/31 09:21:02;;;;;;;509.70;204.60;;;;;;;;;;5016144;28;20184;-80
2023/10/31 09:23:29;;;;;;;479.63;189.00;;;;;;;;;;5017071;28;20230;-81
2023/10/31 09:25:55;;;;;;;452.13;173.40;;;;;;;;;;5012451;28;20216;-79
2023/10/31 09:28:21;;;;;;;438.60;167.33;;;;;;;;;;5014642;28;20632;-79
2023/10/31 09:30:47;;;;;;;548.80;233.07;;;;;;;;;;5014692;28;20534;-80
2023/10/31 09:33:13;;;;;;;448.80;176.87;;;;;;;;;;5020810;28;20208;-79
2023/10/31 09:35:39;;;;;;;478.33;190.80;;;;;;;;;;5030674;28;20292;-78
2023/10/31 09:38:05;;;;;;;483.93;190.37;;;;;;;;;;5021240;28;20244;-83
2023/10/31 09:40:31;;;;;;;437.90;177.27;;;;;;;;;;5017242;28;20238;-79
2023/10/31 09:42:56;;;;;;;441.17;170.57;;;;;;;;;;5011707;28;20310;-78
2023/10/31 09:45:22;;;;;;;428.13;162.47;;;;;;;;;;5019594;28;20451;-77
2023/10/31 09:47:49;;;;;;;474.80;185.67;;;;;;;;;;5029142;28;20708;-78
2023/10/31 09:50:15;;;;;;;515.37;210.83;;;;;;;;;;5028148;28;20212;-80
2023/10/31 09:52:41;;;;;;;502.40;207.03;;;;;;;;;;5015613;28;20571;-79
2023/10/31 09:55:08;;;;;;;491.73;196.63;;;;;;;;;;5018122;28;20220;-80
2023/10/31 09:57:34;;;;;;;517.13;216.90;;;;;;;;;;5016847;28;20305;-80
2023/10/31 10:00:00;;;;;;;448.03;172.27;;;;;;;;;;5016357;28;20217;-79
2023/10/31 10:02:26;;;;;;;445.70;170.37;;;;;;;;;;5012751;28;20298;-79
2023/10/31 10:04:52;;;;;;;520.10;214.63;;;;;;;;;;5016037;28;20585;-80
2023/10/31 10:07:18;;;;;;;461.47;183.53;;;;;;;;;;5016480;28;20628;-79
2023/10/31 10:09:46;;;;;;;497.03;206.07;;;;;;;;;;5000091;28;20246;-79
2023/10/31 10:12:12;;;;;;;435.47;173.83;;;;;;;;;;5011187;28;20179;-81
2023/10/31 10:14:39;;;;;;;439.40;170.60;;;;;;;;;;5013538;28;20230;-78
2023/10/31 10:17:24;;;;;;;481.43;189.90;;;;;;;;;;5010889;28;20594;-80
2023/10/31 10:20:08;;;;;;;496.10;200.63;;;;;;;;;;5002925;28;20725;-80
2023/10/31 10:22:44;;;;;;;493.07;200.17;;;;;;;;;;5010413;28;20239;-78
2023/10/31 10:25:11;;;;;;;490.83;196.07;;;;;;;;;;5011290;28;20243;-80
2023/10/31 10:27:37;;;;;;;502.80;202.83;;;;;;;;;;5016160;28;20219;-78
2023/10/31 10:30:04;;;;;;;442.60;168.93;;;;;;;;;;5015240;28;20188;-78
2023/10/31 10:32:30;;;;;;;453.93;175.83;;;;;;;;;;5018325;28;20188;-79
2023/10/31 10:34:57;;;;;;;520.87;212.80;;;;;;;;;;5000734;28;20263;-82
2023/10/31 10:37:23;;;;;;;505.27;205.40;;;;;;;;;;5009246;28;20227;-84
2023/10/31 10:39:55;;;;;;;506.07;208.00;;;;;;;;;;5010507;28;20238;-85
2023/10/31 10:42:26;;;;;;;551.73;235.27;;;;;;;;;;5017703;28;20370;-86
2023/10/31 10:44:54;;;;;;;507.63;206.80;;;;;;;;;;5009168;28;20670;-82
2023/10/31 10:47:20;;;;;;;423.03;162.20;;;;;;;;;;5015754;28;20224;-82
2023/10/31 10:49:48;;;;;;;548.03;230.73;;;;;;;;;;5015122;28;20914;-83
2023/10/31 10:52:18;;;;;;;442.70;175.30;;;;;;;;;;5015804;28;20278;-79
2023/10/31 10:55:07;;;;;;;514.50;216.43;;;;;;;;;;5015767;28;20374;-77
2023/10/31 10:57:38;;;;;;;475.43;193.83;;;;;;;;;;5010454;28;20219;-77
2023/10/31 11:00:08;;;;;;;469.23;192.17;;;;;;;;;;5012277;28;20184;-75
2023/10/31 11:02:35;;;;;;;481.73;194.00;;;;;;;;;;5016904;28;20318;-82
2023/10/31 11:05:02;;;;;;;448.43;183.90;;;;;;;;;;5013487;28;20333;-81
2023/10/31 11:07:30;;;;;;;497.90;214.53;;;;;;;;;;5014664;28;20232;-80
2023/10/31 11:09:57;;;;;;;507.70;213.33;;;;;;;;;;5019478;28;20208;-79
2023/10/31 11:12:24;;;;;;;517.30;219.73;;;;;;;;;;5009781;28;20274;-79
2023/10/31 11:14:50;;;;;;;512.30;214.43;;;;;;;;;;5019431;28;20252;-75
2023/10/31 11:17:27;;;;;;;491.47;211.07;;;;;;;;;;5014268;28;20232;-77
2023/10/31 11:19:53;;;;;;;485.30;200.17;;;;;;;;;;4999962;28;20207;-79
2023/10/31 11:22:19;;;;;;;442.27;177.87;;;;;;;;;;5018148;28;20222;-79
2023/10/31 11:24:45;;;;;;;485.57;200.33;;;;;;;;;;5014939;28;20212;-79
2023/10/31 11:27:11;;;;;;;493.87;202.30;;;;;;;;;;5024919;28;20615;-79
2023/10/31 11:29:37;;;;;;;477.33;199.63;;;;;;;;;;5018890;28;20978;-79
2023/10/31 11:32:03;;;;;;;470.27;196.50;;;;;;;;;;5013265;28;20211;-81
2023/10/31 11:34:32;;;;;;;496.00;212.03;;;;;;;;;;5012778;28;20223;-79
2023/10/31 11:37:16;;;;;;;492.57;214.47;;;;;;;;;;5010120;28;20236;-81
2023/10/31 11:39:42;;;;;;;476.33;199.27;;;;;;;;;;5022832;28;20216;-81
2023/10/31 11:42:18;;;;;;;505.43;211.03;;;;;;;;;;5010118;28;20203;-73
2023/10/31 11:44:56;;;;;;;557.83;241.67;;;;;;;;;;4988550;28;20177;-81
2023/10/31 11:47:23;;;;;;;474.83;201.43;;;;;;;;;;5013771;28;20365;-77
2023/10/31 11:52:41;;;;;;;464.80;192.80;;;;;;;;;;4911838;28;20313;-77
2023/10/31 11:55:10;;;;;;;477.27;207.70;;;;;;;;;;5019359;28;20372;-80
2023/10/31 11:57:36;;;;;;;490.37;210.67;;;;;;;;;;5016640;28;20216;-78
2023/10/31 12:00:03;;;;;;;463.60;194.07;;;;;;;;;;5008845;28;20258;-79
2023/10/31 12:02:30;;;;;;;495.90;213.80;;;;;;;;;;4999235;28;20226;-76
2023/10/31 12:08:16;;;;;;;511.40;235.63;;;;;;;;;;5716116;23;21032;-48
2023/10/31 12:10:42;;;;;;;542.00;261.43;;;;;;;;;;4941194;28;25308;-48
2023/10/31 12:13:13;;;;;;;545.77;260.93;;;;;;;;;;4947856;28;20342;-49
2023/10/31 12:15:51;;;;;;;494.50;231.93;;;;;;;;;;4965383;28;20228;-48
2023/10/31 12:18:18;;;;;;;513.63;235.20;;;;;;;;;;4954437;28;20192;-50
2023/10/31 12:20:48;;;;;;;572.53;275.53;;;;;;;;;;4951851;28;20315;-49
2023/10/31 12:23:14;;;;;;;524.63;240.60;;;;;;;;;;4946662;28;20596;-49
2023/10/31 12:25:50;;;;;;;542.03;260.87;;;;;;;;;;4941546;28;25204;-48
2023/10/31 12:28:19;;;;;;;571.53;276.77;;;;;;;;;;4944986;28;20227;-48
2023/10/31 12:30:46;;;;;;;606.40;303.83;;;;;;;;;;4954917;28;20781;-48
2023/10/31 12:33:12;;;;;;;537.50;258.63;;;;;;;;;;4952436;28;20603;-48
2023/10/31 12:35:39;;;;;;;583.77;279.33;;;;;;;;;;4922982;28;20228;-48
2023/10/31 12:38:08;;;;;;;495.20;230.93;;;;;;;;;;4952403;28;20221;-48
2023/10/31 12:40:35;;;;;;;523.27;252.33;;;;;;;;;;4966263;28;20217;-48
2023/10/31 12:43:03;;;;;;;498.37;232.53;;;;;;;;;;4959802;28;20231;-48
2023/10/31 12:45:29;;;;;;;524.87;240.00;;;;;;;;;;4974959;28;20665;-48
2023/10/31 12:48:05;;;;;;;588.00;285.80;;;;;;;;;;4945590;28;20189;-48
2023/10/31 12:50:32;;;;;;;613.37;313.40;;;;;;;;;;4947154;28;20216;-48
2023/10/31 12:52:59;;;;;;;560.53;276.93;;;;;;;;;;4938898;28;20801;-48
2023/10/31 12:55:26;;;;;;;564.53;272.57;;;;;;;;;;4929973;28;23968;-48
2023/10/31 12:57:52;;;;;;;528.37;245.63;;;;;;;;;;4950475;28;20698;-48
2023/10/31 13:00:24;;;;;;;485.43;225.97;;;;;;;;;;4962824;28;20212;-49
2023/10/31 13:02:50;;;;;;;590.43;297.40;;;;;;;;;;4944108;28;20204;-48
2023/10/31 13:05:16;;;;;;;507.77;234.23;;;;;;;;;;4945724;28;20348;-48
2023/10/31 13:07:49;;;;;;;537.37;247.73;;;;;;;;;;4945759;28;20243;-48
2023/10/31 13:10:16;;;;;;;505.83;230.93;;;;;;;;;;4948958;28;21073;-48
2023/10/31 13:12:48;;;;;;;580.43;282.27;;;;;;;;;;4945786;28;20435;-48
2023/10/31 13:15:15;;;;;;;565.83;270.33;;;;;;;;;;4949606;28;20208;-48
2023/10/31 13:17:44;;;;;;;530.37;250.43;;;;;;;;;;4954158;28;20188;-48
2023/10/31 13:20:14;;;;;;;546.13;264.43;;;;;;;;;;4942303;28;20448;-48
2023/10/31 13:22:41;;;;;;;550.47;272.50;;;;;;;;;;4938764;28;20229;-48
2023/10/31 13:25:09;;;;;;;531.60;254.43;;;;;;;;;;4944823;28;20381;-48
2023/10/31 13:27:36;;;;;;;733.47;396.83;;;;;;;;;;4928935;28;20248;-48
2023/10/31 13:30:02;;;;;;;525.37;251.50;;;;;;;;;;4945561;28;21151;-48
2023/10/31 13:32:28;;;;;;;571.70;277.53;;;;;;;;;;4947033;28;20216;-48
2023/10/31 13:34:54;;;;;;;588.27;284.17;;;;;;;;;;4957089;28;20315;-48
2023/10/31 13:37:20;;;;;;;615.43;305.70;;;;;;;;;;4941411;28;20220;-48
2023/10/31 13:39:46;;;;;;;555.80;268.03;;;;;;;;;;4933489;28;20271;-48
2023/10/31 13:42:14;;;;;;;628.57;311.87;;;;;;;;;;4944387;28;20193;-48
2023/10/31 13:44:40;;;;;;;485.03;216.40;;;;;;;;;;4962322;28;20764;-48
2023/10/31 13:47:06;;;;;;;512.57;232.33;;;;;;;;;;4969648;28;20532;-48
2023/10/31 13:49:33;;;;;;;554.37;265.23;;;;;;;;;;4966209;28;20230;-48
2023/10/31 13:51:59;;;;;;;481.33;211.07;;;;;;;;;;4966994;28;20522;-48
2023/10/31 13:54:25;;;;;;;506.30;238.07;;;;;;;;;;4970100;28;20225;-48